Time;durP1;ratioP1;P1;durP2;ratioP2;P2;SDS_P1;SDS_P2;PMS_P1;PMS_P2;Temp;Humidity;BMP_temperature;BMP_pressure;BME280_temperature;BME280_humidity;BME280_pressure;Samples;Min_cycle;Max_cycle;Signal;HPM_P1;HPM_P2
2023/08/17 00:01:48;;;;;;;;;;;18.80;86.40;;;;;;4992436;28;19921;-86
2023/08/17 00:04:14;;;;;;;;;;;18.50;87.30;;;;;;4990649;28;19911;-85
2023/08/17 00:06:39;;;;;;;;;;;18.50;88.50;;;;;;4993615;28;20383;-84
2023/08/17 00:09:06;;;;;;;;;;;18.50;88.60;;;;;;4992636;28;19917;-84
2023/08/17 00:11:32;;;;;;;;;;;18.40;88.70;;;;;;4992369;28;19988;-84
2023/08/17 00:13:57;;;;;;;;;;;18.40;88.70;;;;;;4984703;28;19913;-84
2023/08/17 00:16:23;;;;;;;;;;;18.40;88.90;;;;;;4985978;28;20454;-84
2023/08/17 00:18:49;;;;;;;;;;;18.30;88.70;;;;;;4991604;28;19913;-84
2023/08/17 00:21:14;;;;;;;;;;;18.30;89.20;;;;;;4993570;28;19940;-84
2023/08/17 00:23:40;;;;;;;;;;;18.30;89.20;;;;;;4981551;28;20285;-85
2023/08/17 00:26:06;;;;;;;;;;;18.10;89.70;;;;;;4991656;28;19922;-83
2023/08/17 00:28:31;;;;;;;;;;;18.10;90.00;;;;;;4992688;28;19910;-84
2023/08/17 00:30:57;;;;;;;;;;;18.10;90.10;;;;;;4985360;28;19922;-86
2023/08/17 00:33:22;;;;;;;;;;;18.00;89.90;;;;;;4993047;28;19925;-86
2023/08/17 00:35:48;;;;;;;;;;;17.90;90.50;;;;;;5014141;28;19902;-83
2023/08/17 00:38:13;;;;;;;;;;;17.80;90.90;;;;;;5005451;28;20371;-85
2023/08/17 00:40:39;;;;;;;;;;;17.80;91.20;;;;;;4992515;28;20370;-86
2023/08/17 00:43:05;;;;;;;;;;;17.80;91.10;;;;;;4993487;28;19945;-84
2023/08/17 00:45:31;;;;;;;;;;;17.60;91.00;;;;;;4988627;28;19910;-86
2023/08/17 00:47:57;;;;;;;;;;;17.50;91.40;;;;;;4991300;28;19918;-85
2023/08/17 00:50:23;;;;;;;;;;;17.60;91.70;;;;;;4990179;28;20387;-87
2023/08/17 00:52:49;;;;;;;;;;;17.70;91.60;;;;;;4991581;28;19917;-87
2023/08/17 00:55:14;;;;;;;;;;;17.60;91.40;;;;;;4991133;28;20303;-87
2023/08/17 00:57:41;;;;;;;;;;;17.50;91.40;;;;;;5016113;28;19940;-85
2023/08/17 01:00:08;;;;;;;;;;;17.40;91.70;;;;;;5007851;28;19898;-85
2023/08/17 01:02:34;;;;;;;;;;;17.40;91.80;;;;;;5008352;28;19932;-86
2023/08/17 01:05:00;;;;;;;;;;;17.30;92.40;;;;;;4998341;28;20004;-85
2023/08/17 01:07:25;;;;;;;;;;;17.40;92.60;;;;;;4999422;28;19998;-85
2023/08/17 01:09:51;;;;;;;;;;;17.40;92.30;;;;;;5012705;28;19960;-85
2023/08/17 01:12:30;;;;;;;;;;;17.50;92.20;;;;;;5009712;28;19949;-82
2023/08/17 01:14:59;;;;;;;;;;;17.50;92.20;;;;;;5005693;28;19941;-86
2023/08/17 01:17:29;;;;;;;;;;;17.50;92.30;;;;;;5003164;28;19937;-86
2023/08/17 01:19:55;;;;;;;;;;;17.50;92.50;;;;;;5002858;28;21115;-85
2023/08/17 01:22:22;;;;;;;;;;;17.50;92.50;;;;;;5002107;28;19925;-86
2023/08/17 01:24:47;;;;;;;;;;;17.50;92.30;;;;;;5001499;28;19914;-85
2023/08/17 01:27:13;;;;;;;;;;;17.50;92.10;;;;;;5001517;28;20371;-86
2023/08/17 01:29:38;;;;;;;;;;;17.50;92.00;;;;;;4993053;28;19960;-84
2023/08/17 01:32:09;;;;;;;;;;;17.50;92.00;;;;;;4995950;28;19914;-85
2023/08/17 01:34:39;;;;;;;;;;;17.50;92.10;;;;;;4988154;28;19918;-84
2023/08/17 01:37:06;;;;;;;;;;;17.50;91.60;;;;;;4984070;28;20488;-84
2023/08/17 01:39:37;;;;;;;;;;;17.50;92.10;;;;;;4992591;28;19918;-85
2023/08/17 01:42:03;;;;;;;;;;;17.50;92.00;;;;;;4996062;28;19956;-84
2023/08/17 01:44:29;;;;;;;;;;;17.40;92.00;;;;;;4996707;28;20418;-83
2023/08/17 01:46:54;;;;;;;;;;;17.50;92.50;;;;;;4997250;28;19914;-85
2023/08/17 01:49:20;;;;;;;;;;;17.50;91.90;;;;;;4998765;28;19943;-85
2023/08/17 01:51:45;;;;;;;;;;;17.50;91.40;;;;;;4998104;28;19909;-84
2023/08/17 01:54:11;;;;;;;;;;;17.60;91.20;;;;;;5001498;28;20296;-85
2023/08/17 01:56:36;;;;;;;;;;;17.50;91.60;;;;;;4993021;28;19996;-85
2023/08/17 01:59:02;;;;;;;;;;;17.50;91.50;;;;;;5000186;28;19913;-84
2023/08/17 02:01:28;;;;;;;;;;;17.50;92.00;;;;;;5000174;28;19921;-84
2023/08/17 02:03:53;;;;;;;;;;;17.50;91.90;;;;;;4999420;28;19921;-84
2023/08/17 02:06:19;;;;;;;;;;;17.50;92.20;;;;;;4999830;28;20410;-84
2023/08/17 02:11:12;;;;;;;;;;;17.50;92.20;;;;;;5006515;28;20274;-83
2023/08/17 02:13:37;;;;;;;;;;;17.50;92.40;;;;;;5008398;28;19917;-82
2023/08/17 02:16:04;;;;;;;;;;;17.50;92.10;;;;;;5004166;28;19920;-82
2023/08/17 02:18:31;;;;;;;;;;;17.50;92.30;;;;;;5007685;28;20400;-82
2023/08/17 02:20:57;;;;;;;;;;;17.50;92.20;;;;;;5013570;28;20369;-82
2023/08/17 02:23:22;;;;;;;;;;;17.40;91.70;;;;;;5015251;28;19914;-81
2023/08/17 02:25:48;;;;;;;;;;;17.40;91.80;;;;;;5013178;28;19920;-82
2023/08/17 02:28:13;;;;;;;;;;;17.50;92.00;;;;;;4999814;28;20315;-81
2023/08/17 02:30:39;;;;;;;;;;;17.50;91.60;;;;;;5011153;28;19933;-83
2023/08/17 02:33:05;;;;;;;;;;;17.50;91.60;;;;;;5010329;28;19914;-83
2023/08/17 02:35:30;;;;;;;;;;;17.60;91.60;;;;;;5013471;28;19914;-83
2023/08/17 02:37:56;;;;;;;;;;;17.60;90.50;;;;;;5013982;28;20288;-83
2023/08/17 02:40:21;;;;;;;;;;;17.50;91.30;;;;;;5013177;28;19917;-83
2023/08/17 02:42:47;;;;;;;;;;;17.50;91.50;;;;;;5013914;28;19917;-83
2023/08/17 02:45:12;;;;;;;;;;;17.40;91.30;;;;;;5014286;28;19935;-83
2023/08/17 02:47:38;;;;;;;;;;;17.20;91.20;;;;;;5014634;28;19917;-83
2023/08/17 02:50:03;;;;;;;;;;;17.20;91.50;;;;;;5015820;28;19910;-83
2023/08/17 02:52:29;;;;;;;;;;;17.20;91.60;;;;;;5013891;28;19924;-83
2023/08/17 02:54:54;;;;;;;;;;;17.20;91.40;;;;;;5013010;28;20396;-82
2023/08/17 02:57:20;;;;;;;;;;;17.20;91.70;;;;;;5011463;28;19913;-83
2023/08/17 02:59:45;;;;;;;;;;;17.30;92.00;;;;;;5012951;28;20373;-82
2023/08/17 03:02:11;;;;;;;;;;;17.30;91.90;;;;;;5011720;28;19968;-83
2023/08/17 03:04:36;;;;;;;;;;;17.30;91.80;;;;;;5013584;28;19917;-82
2023/08/17 03:07:02;;;;;;;;;;;17.40;91.40;;;;;;5013047;28;19910;-82
2023/08/17 03:09:27;;;;;;;;;;;17.40;91.40;;;;;;5012265;28;19972;-84
2023/08/17 03:11:53;;;;;;;;;;;17.40;91.20;;;;;;5010113;28;19913;-82
2023/08/17 03:14:18;;;;;;;;;;;17.40;90.90;;;;;;5011071;28;19921;-83
2023/08/17 03:16:44;;;;;;;;;;;17.40;91.10;;;;;;5010946;28;19921;-82
2023/08/17 03:19:11;;;;;;;;;;;17.40;91.20;;;;;;5011990;28;19917;-83
2023/08/17 03:21:36;;;;;;;;;;;17.40;91.60;;;;;;5011355;28;19968;-83
2023/08/17 03:24:02;;;;;;;;;;;17.50;91.60;;;;;;5010585;28;19963;-81
2023/08/17 03:26:28;;;;;;;;;;;17.50;91.70;;;;;;5011203;28;19998;-82
2023/08/17 03:28:53;;;;;;;;;;;17.50;91.80;;;;;;5011065;28;20048;-82
2023/08/17 03:31:22;;;;;;;;;;;17.60;91.70;;;;;;5010675;28;20291;-82
2023/08/17 03:33:47;;;;;;;;;;;17.60;91.00;;;;;;5011119;28;19914;-83
2023/08/17 03:36:13;;;;;;;;;;;17.60;91.30;;;;;;5011033;28;20000;-82
2023/08/17 03:38:39;;;;;;;;;;;17.50;91.40;;;;;;5012073;28;20276;-82
2023/08/17 03:41:05;;;;;;;;;;;17.50;91.10;;;;;;5009686;28;20301;-82
2023/08/17 03:43:30;;;;;;;;;;;17.60;91.40;;;;;;5012959;28;20269;-82
2023/08/17 03:45:56;;;;;;;;;;;17.60;91.20;;;;;;5003414;28;19916;-82
2023/08/17 03:48:22;;;;;;;;;;;17.50;91.00;;;;;;5011726;28;20372;-82
2023/08/17 03:50:54;;;;;;;;;;;17.50;91.00;;;;;;5013303;28;20384;-82
2023/08/17 03:53:20;;;;;;;;;;;17.50;91.20;;;;;;5013465;28;20396;-82
2023/08/17 03:55:47;;;;;;;;;;;17.50;91.30;;;;;;5013158;28;19910;-82
2023/08/17 03:58:12;;;;;;;;;;;17.60;90.70;;;;;;5011795;28;19913;-82
2023/08/17 04:00:39;;;;;;;;;;;17.50;90.60;;;;;;5012273;28;20012;-82
2023/08/17 04:03:04;;;;;;;;;;;17.40;91.10;;;;;;5012719;28;19914;-83
2023/08/17 04:05:30;;;;;;;;;;;17.40;91.20;;;;;;5014013;28;19916;-82
2023/08/17 04:08:01;;;;;;;;;;;17.40;91.00;;;;;;5006115;28;19909;-83
2023/08/17 04:10:27;;;;;;;;;;;17.50;91.10;;;;;;5005108;28;19961;-82
2023/08/17 04:12:52;;;;;;;;;;;17.50;91.10;;;;;;5011043;28;20270;-82
2023/08/17 04:15:18;;;;;;;;;;;17.50;90.80;;;;;;5011371;28;20009;-83
2023/08/17 04:17:43;;;;;;;;;;;17.40;91.30;;;;;;5012850;28;20364;-82
2023/08/17 04:20:09;;;;;;;;;;;17.50;91.00;;;;;;5012185;28;20281;-82
2023/08/17 04:22:34;;;;;;;;;;;17.40;91.00;;;;;;5012686;28;19913;-81
2023/08/17 04:25:00;;;;;;;;;;;17.60;90.30;;;;;;5011987;28;20242;-82
2023/08/17 04:27:25;;;;;;;;;;;17.50;90.80;;;;;;5009781;28;19985;-81
2023/08/17 04:29:51;;;;;;;;;;;17.50;90.40;;;;;;5012882;28;19948;-82
2023/08/17 04:32:16;;;;;;;;;;;17.50;90.70;;;;;;5006356;28;20388;-81
2023/08/17 04:34:43;;;;;;;;;;;17.40;90.80;;;;;;5007456;28;19914;-83
2023/08/17 04:37:08;;;;;;;;;;;17.30;90.90;;;;;;5011038;28;19921;-82
2023/08/17 04:39:34;;;;;;;;;;;17.30;91.20;;;;;;5013675;28;19909;-82
2023/08/17 04:41:59;;;;;;;;;;;17.30;91.50;;;;;;5010015;28;20301;-83
2023/08/17 04:44:24;;;;;;;;;;;17.30;91.70;;;;;;5011853;28;19913;-82
2023/08/17 04:46:50;;;;;;;;;;;17.40;91.50;;;;;;5012194;28;19973;-82
2023/08/17 04:49:15;;;;;;;;;;;17.30;91.30;;;;;;5007425;28;19914;-83
2023/08/17 04:51:41;;;;;;;;;;;17.40;91.20;;;;;;5007633;28;19920;-82
2023/08/17 04:54:06;;;;;;;;;;;17.50;90.40;;;;;;5011323;28;20356;-82
2023/08/17 04:56:32;;;;;;;;;;;17.60;90.40;;;;;;5010688;28;19917;-82
2023/08/17 04:58:57;;;;;;;;;;;17.50;90.40;;;;;;5010828;28;19914;-82
2023/08/17 05:01:23;;;;;;;;;;;17.50;90.60;;;;;;4999670;28;19913;-83
2023/08/17 05:03:48;;;;;;;;;;;17.50;91.10;;;;;;5011206;28;19910;-82
2023/08/17 05:06:14;;;;;;;;;;;17.60;90.30;;;;;;5004073;28;19910;-83
2023/08/17 05:08:39;;;;;;;;;;;17.50;90.30;;;;;;5012166;28;19996;-83
2023/08/17 05:11:05;;;;;;;;;;;17.50;90.80;;;;;;5011228;28;19921;-82
2023/08/17 05:13:30;;;;;;;;;;;17.50;91.20;;;;;;5013639;28;19913;-82
2023/08/17 05:15:55;;;;;;;;;;;17.50;91.00;;;;;;5012590;28;19909;-83
2023/08/17 05:18:21;;;;;;;;;;;17.50;91.10;;;;;;5009992;28;19917;-82
2023/08/17 05:20:46;;;;;;;;;;;17.50;91.20;;;;;;5009637;28;19921;-82
2023/08/17 05:23:12;;;;;;;;;;;17.50;91.60;;;;;;5009606;28;19959;-83
2023/08/17 05:25:37;;;;;;;;;;;17.60;90.90;;;;;;5009028;28;19913;-81
2023/08/17 05:28:03;;;;;;;;;;;17.60;90.30;;;;;;5004751;28;20460;-84
2023/08/17 05:30:28;;;;;;;;;;;17.60;90.60;;;;;;5002262;28;19924;-82
2023/08/17 05:32:54;;;;;;;;;;;17.60;90.80;;;;;;5010437;28;19913;-81
2023/08/17 05:35:19;;;;;;;;;;;17.60;90.40;;;;;;5011927;28;19960;-81
2023/08/17 05:37:45;;;;;;;;;;;17.60;90.10;;;;;;5010473;28;19921;-82
2023/08/17 05:40:11;;;;;;;;;;;17.60;89.40;;;;;;5004694;28;20288;-82
2023/08/17 05:42:36;;;;;;;;;;;17.50;89.80;;;;;;5003503;28;19913;-82
2023/08/17 05:45:02;;;;;;;;;;;17.50;89.70;;;;;;5010054;28;19909;-82
2023/08/17 05:47:27;;;;;;;;;;;17.60;89.80;;;;;;4992012;28;19937;-81
2023/08/17 05:49:53;;;;;;;;;;;17.60;89.60;;;;;;5006329;28;20579;-82
2023/08/17 05:52:18;;;;;;;;;;;17.60;89.70;;;;;;5017124;28;19909;-84
2023/08/17 05:54:44;;;;;;;;;;;17.50;89.80;;;;;;5008932;28;20291;-83
2023/08/17 05:57:10;;;;;;;;;;;17.50;90.00;;;;;;5016224;28;19913;-84
2023/08/17 05:59:36;;;;;;;;;;;17.40;90.20;;;;;;5014610;28;19917;-83
2023/08/17 06:02:01;;;;;;;;;;;17.50;90.00;;;;;;5012578;28;19980;-83
2023/08/17 06:04:27;;;;;;;;;;;17.50;90.10;;;;;;5017459;28;20276;-82
2023/08/17 06:06:52;;;;;;;;;;;17.40;90.20;;;;;;5014319;28;19944;-84
2023/08/17 06:09:17;;;;;;;;;;;17.40;90.60;;;;;;5009856;28;19963;-83
2023/08/17 06:11:43;;;;;;;;;;;17.30;90.80;;;;;;5019232;28;19913;-83
2023/08/17 06:14:08;;;;;;;;;;;17.50;90.50;;;;;;5009338;28;19909;-83
2023/08/17 06:16:35;;;;;;;;;;;17.50;90.10;;;;;;5017029;28;19916;-83
2023/08/17 06:19:00;;;;;;;;;;;17.50;89.90;;;;;;5017913;28;19955;-83
2023/08/17 06:21:25;;;;;;;;;;;17.40;90.20;;;;;;5017736;28;20251;-82
2023/08/17 06:23:51;;;;;;;;;;;17.50;90.20;;;;;;5015219;28;19914;-83
2023/08/17 06:26:16;;;;;;;;;;;17.60;89.90;;;;;;5016421;28;19921;-82
2023/08/17 06:28:42;;;;;;;;;;;17.60;90.00;;;;;;5017791;28;20304;-82
2023/08/17 06:31:07;;;;;;;;;;;17.60;89.80;;;;;;5017210;28;19925;-82
2023/08/17 06:33:33;;;;;;;;;;;17.60;90.00;;;;;;5009432;28;19913;-83
2023/08/17 06:35:58;;;;;;;;;;;17.60;89.50;;;;;;5015500;28;20296;-81
2023/08/17 06:38:24;;;;;;;;;;;17.80;89.80;;;;;;5013828;28;19914;-82
2023/08/17 06:40:49;;;;;;;;;;;17.70;89.50;;;;;;5014956;28;20282;-83
2023/08/17 06:43:14;;;;;;;;;;;17.60;89.60;;;;;;5014964;28;19909;-82
2023/08/17 06:45:40;;;;;;;;;;;17.70;90.10;;;;;;5014854;28;19914;-81
2023/08/17 06:48:05;;;;;;;;;;;17.70;90.30;;;;;;5014579;28;19913;-82
2023/08/17 06:50:31;;;;;;;;;;;17.80;90.10;;;;;;5012995;28;20372;-82
2023/08/17 06:52:56;;;;;;;;;;;17.90;89.30;;;;;;5014559;28;19917;-82
2023/08/17 06:55:22;;;;;;;;;;;17.80;89.20;;;;;;5005537;28;20363;-82
2023/08/17 06:57:51;;;;;;;;;;;17.80;89.60;;;;;;5013497;28;19918;-82
2023/08/17 07:00:20;;;;;;;;;;;17.80;89.90;;;;;;5014501;28;20614;-81
2023/08/17 07:02:46;;;;;;;;;;;17.80;89.70;;;;;;5011565;28;19909;-81
2023/08/17 07:05:13;;;;;;;;;;;17.80;89.50;;;;;;5014082;28;19992;-82
2023/08/17 07:07:39;;;;;;;;;;;17.80;89.60;;;;;;5014220;28;19917;-82
2023/08/17 07:10:04;;;;;;;;;;;18.00;89.50;;;;;;5015861;28;19917;-82
2023/08/17 07:12:30;;;;;;;;;;;18.00;88.70;;;;;;5011267;28;19936;-81
2023/08/17 07:14:55;;;;;;;;;;;17.80;88.80;;;;;;5012799;28;19913;-81
2023/08/17 07:17:21;;;;;;;;;;;17.60;89.40;;;;;;5014835;28;20308;-81
2023/08/17 07:19:46;;;;;;;;;;;17.60;89.90;;;;;;5018377;28;19925;-81
2023/08/17 07:22:11;;;;;;;;;;;17.90;89.60;;;;;;5016667;28;19996;-82
2023/08/17 07:24:37;;;;;;;;;;;17.90;89.30;;;;;;5015653;28;19941;-83
2023/08/17 07:27:02;;;;;;;;;;;17.90;89.40;;;;;;5014771;28;19922;-82
2023/08/17 07:29:28;;;;;;;;;;;17.90;89.60;;;;;;5014180;28;19914;-81
2023/08/17 07:31:54;;;;;;;;;;;17.80;89.60;;;;;;5014695;28;19913;-83
2023/08/17 07:34:20;;;;;;;;;;;18.00;89.80;;;;;;5009339;28;19945;-80
2023/08/17 07:36:45;;;;;;;;;;;17.90;89.90;;;;;;5011855;28;19914;-81
2023/08/17 07:39:11;;;;;;;;;;;17.90;89.70;;;;;;5014057;28;19921;-80
2023/08/17 07:41:36;;;;;;;;;;;17.90;89.90;;;;;;5015568;28;19917;-81
2023/08/17 07:44:02;;;;;;;;;;;18.10;89.70;;;;;;5013973;28;19922;-81
2023/08/17 07:46:27;;;;;;;;;;;18.10;89.30;;;;;;5014984;28;20288;-81
2023/08/17 07:48:53;;;;;;;;;;;18.10;88.90;;;;;;5014467;28;20266;-82
2023/08/17 07:51:19;;;;;;;;;;;18.00;89.50;;;;;;5013100;28;19909;-82
2023/08/17 07:53:44;;;;;;;;;;;18.00;89.70;;;;;;5013089;28;19918;-82
2023/08/17 07:56:09;;;;;;;;;;;18.00;89.80;;;;;;5011852;28;19924;-82
2023/08/17 07:58:35;;;;;;;;;;;18.00;89.80;;;;;;5013784;28;20369;-82
2023/08/17 08:01:00;;;;;;;;;;;17.90;89.80;;;;;;5012746;28;19913;-81
2023/08/17 08:03:26;;;;;;;;;;;17.90;90.30;;;;;;5014534;28;19921;-81
2023/08/17 08:05:51;;;;;;;;;;;17.90;89.90;;;;;;5002816;28;19910;-82
2023/08/17 08:08:17;;;;;;;;;;;17.80;90.10;;;;;;5004778;28;19914;-81
2023/08/17 08:10:43;;;;;;;;;;;18.00;90.40;;;;;;5003772;23;19927;-90
2023/08/17 08:13:09;;;;;;;;;;;18.00;90.30;;;;;;4992775;28;20364;-90
2023/08/17 08:15:34;;;;;;;;;;;18.10;90.70;;;;;;4986350;28;19963;-90
2023/08/17 08:18:00;;;;;;;;;;;18.10;90.20;;;;;;4991552;28;20276;-86
2023/08/17 08:20:25;;;;;;;;;;;18.20;90.20;;;;;;4990794;28;20299;-88
2023/08/17 08:22:51;;;;;;;;;;;18.20;89.80;;;;;;4991916;28;19910;-87
2023/08/17 08:25:16;;;;;;;;;;;18.10;89.70;;;;;;4993596;28;19910;-88
2023/08/17 08:27:42;;;;;;;;;;;18.10;90.20;;;;;;4983871;28;19917;-88
2023/08/17 08:30:07;;;;;;;;;;;18.20;89.90;;;;;;4991311;28;19917;-88
2023/08/17 08:32:33;;;;;;;;;;;18.10;89.70;;;;;;4991711;28;19914;-86
2023/08/17 08:34:58;;;;;;;;;;;18.10;89.80;;;;;;4993167;28;19910;-87
2023/08/17 08:37:24;;;;;;;;;;;18.20;90.30;;;;;;4991643;28;19916;-87
2023/08/17 08:39:50;;;;;;;;;;;18.20;90.20;;;;;;4991802;28;20372;-88
2023/08/17 08:42:16;;;;;;;;;;;18.20;89.90;;;;;;4973551;28;19920;-89
2023/08/17 08:44:42;;;;;;;;;;;18.30;90.10;;;;;;4989735;28;19910;-90
2023/08/17 08:47:08;;;;;;;;;;;18.30;89.80;;;;;;4991742;28;19914;-91
2023/08/17 08:49:36;;;;;;;;;;;18.20;90.00;;;;;;4977283;28;20422;-88
2023/08/17 08:52:03;;;;;;;;;;;18.20;90.10;;;;;;4984385;28;19918;-88
2023/08/17 08:54:30;;;;;;;;;;;18.40;88.80;;;;;;5013500;28;19932;-88
2023/08/17 08:56:59;;;;;;;;;;;18.40;89.10;;;;;;5010571;28;19949;-88
2023/08/17 08:59:26;;;;;;;;;;;18.40;89.20;;;;;;5011521;28;20363;-89
2023/08/17 09:01:52;;;;;;;;;;;18.30;89.40;;;;;;4985174;28;20435;-88
2023/08/17 09:04:18;;;;;;;;;;;18.30;89.50;;;;;;4985847;28;19914;-89
2023/08/17 09:06:43;;;;;;;;;;;18.40;89.40;;;;;;4983423;28;19921;-88
2023/08/17 09:09:13;;;;;;;;;;;18.30;89.10;;;;;;4990981;28;19918;-88
2023/08/17 09:11:38;;;;;;;;;;;18.40;89.60;;;;;;4987665;28;19917;-89
2023/08/17 09:14:05;;;;;;;;;;;18.40;89.80;;;;;;4983591;28;19914;-89
2023/08/17 09:16:31;;;;;;;;;;;18.60;89.60;;;;;;4986493;28;19916;-88
2023/08/17 09:18:56;;;;;;;;;;;18.60;89.40;;;;;;4990333;28;20283;-86
2023/08/17 09:21:23;;;;;;;;;;;18.70;89.30;;;;;;4992126;28;20298;-86
2023/08/17 09:23:53;;;;;;;;;;;18.60;89.80;;;;;;4994321;28;19916;-87
2023/08/17 09:26:19;;;;;;;;;;;18.70;90.10;;;;;;4987630;28;19910;-86
2023/08/17 09:28:44;;;;;;;;;;;18.80;89.80;;;;;;4995023;28;19913;-86
2023/08/17 09:31:11;;;;;;;;;;;18.80;88.80;;;;;;4992014;28;19910;-86
2023/08/17 09:33:37;;;;;;;;;;;18.70;88.80;;;;;;4991229;28;19910;-86
2023/08/17 09:36:02;;;;;;;;;;;18.80;89.10;;;;;;4987871;28;19917;-86
2023/08/17 09:38:28;;;;;;;;;;;18.90;88.50;;;;;;4995069;28;19925;-86
2023/08/17 09:40:53;;;;;;;;;;;18.90;88.50;;;;;;4988769;28;19961;-87
2023/08/17 09:43:20;;;;;;;;;;;19.00;88.60;;;;;;4987067;28;19957;-86
2023/08/17 09:45:48;;;;;;;;;;;19.00;88.30;;;;;;4994816;28;19917;-86
2023/08/17 09:48:15;;;;;;;;;;;19.00;88.70;;;;;;4983443;28;19914;-87
2023/08/17 09:50:41;;;;;;;;;;;19.00;88.30;;;;;;4991298;28;20327;-86
2023/08/17 09:53:07;;;;;;;;;;;19.00;88.40;;;;;;4986588;28;19909;-87
2023/08/17 09:55:37;;;;;;;;;;;19.00;88.50;;;;;;4994224;28;20398;-87
2023/08/17 09:58:02;;;;;;;;;;;19.00;88.40;;;;;;4994638;28;20311;-87
2023/08/17 10:00:29;;;;;;;;;;;19.00;88.10;;;;;;4994389;28;19910;-87
2023/08/17 10:02:57;;;;;;;;;;;19.00;88.30;;;;;;4989004;28;19910;-87
2023/08/17 10:05:22;;;;;;;;;;;19.10;88.30;;;;;;4994212;28;20406;-86
2023/08/17 10:07:51;;;;;;;;;;;19.20;88.40;;;;;;4987411;28;19910;-87
2023/08/17 10:10:21;;;;;;;;;;;19.20;88.40;;;;;;4994476;28;19918;-87
2023/08/17 10:13:08;;;;;;;;;;;19.50;87.80;;;;;;4996007;28;19984;-87
2023/08/17 10:15:36;;;;;;;;;;;19.50;87.60;;;;;;4990135;28;19926;-87
2023/08/17 10:18:08;;;;;;;;;;;19.50;87.40;;;;;;4995407;28;19914;-87
2023/08/17 10:20:34;;;;;;;;;;;19.60;86.50;;;;;;4993787;28;19921;-87
2023/08/17 10:23:15;;;;;;;;;;;19.60;87.10;;;;;;4985405;28;19914;-86
2023/08/17 10:25:41;;;;;;;;;;;19.60;86.50;;;;;;4993369;28;20011;-87
2023/08/17 10:28:07;;;;;;;;;;;19.60;86.60;;;;;;4992833;28;19981;-87
2023/08/17 10:30:33;;;;;;;;;;;19.80;86.50;;;;;;4993694;28;19928;-87
2023/08/17 10:32:59;;;;;;;;;;;20.00;85.80;;;;;;4987245;28;19909;-87
2023/08/17 10:35:25;;;;;;;;;;;20.00;85.80;;;;;;4978756;28;19910;-86
2023/08/17 10:37:51;;;;;;;;;;;20.00;85.60;;;;;;4987762;28;19917;-87
2023/08/17 10:40:16;;;;;;;;;;;20.00;85.70;;;;;;4994900;28;19909;-86
2023/08/17 10:42:42;;;;;;;;;;;19.80;85.50;;;;;;4992701;28;19918;-87
2023/08/17 10:45:31;;;;;;;;;;;19.80;86.10;;;;;;4991898;28;19916;-87
2023/08/17 10:48:00;;;;;;;;;;;19.80;86.10;;;;;;4983513;28;20299;-89
2023/08/17 10:50:28;;;;;;;;;;;19.80;86.30;;;;;;4996611;28;20534;-88
2023/08/17 10:52:56;;;;;;;;;;;20.10;86.70;;;;;;4986997;28;19918;-89
2023/08/17 10:55:41;;;;;;;;;;;20.20;86.80;;;;;;4995236;28;19917;-89
2023/08/17 10:58:11;;;;;;;;;;;20.40;83.60;;;;;;4993956;28;20429;-90
2023/08/17 11:00:37;;;;;;;;;;;20.40;84.00;;;;;;4996476;28;19910;-89
2023/08/17 11:03:07;;;;;;;;;;;20.40;83.90;;;;;;4987972;28;19914;-89
2023/08/17 11:05:38;;;;;;;;;;;20.40;84.20;;;;;;4994720;28;19964;-86
2023/08/17 11:08:04;;;;;;;;;;;20.40;84.30;;;;;;4994315;28;20005;-86
2023/08/17 11:10:30;;;;;;;;;;;20.50;83.40;;;;;;4994247;28;19918;-86
2023/08/17 11:12:59;;;;;;;;;;;20.30;84.10;;;;;;4995577;28;19929;-87
2023/08/17 11:15:25;;;;;;;;;;;20.20;85.00;;;;;;4994149;28;19953;-86
2023/08/17 11:17:50;;;;;;;;;;;20.10;85.00;;;;;;4993703;28;19972;-86
2023/08/17 11:20:16;;;;;;;;;;;20.20;84.60;;;;;;4993731;28;19914;-86
2023/08/17 11:22:41;;;;;;;;;;;20.10;85.20;;;;;;4995658;28;19921;-86
2023/08/17 11:25:07;;;;;;;;;;;20.10;85.60;;;;;;4994603;28;20000;-86
2023/08/17 11:27:33;;;;;;;;;;;20.00;85.20;;;;;;4994554;28;19964;-86
2023/08/17 11:29:58;;;;;;;;;;;20.00;86.00;;;;;;4987543;28;19910;-86
2023/08/17 11:32:24;;;;;;;;;;;19.90;85.90;;;;;;4994704;28;19967;-86
2023/08/17 11:34:49;;;;;;;;;;;19.90;86.40;;;;;;4986896;28;20008;-86
2023/08/17 11:37:15;;;;;;;;;;;19.90;86.30;;;;;;4993728;28;19910;-86
2023/08/17 11:39:41;;;;;;;;;;;20.00;86.00;;;;;;4995379;28;19934;-86
2023/08/17 11:42:07;;;;;;;;;;;19.90;85.70;;;;;;4994155;28;20236;-85
2023/08/17 11:44:33;;;;;;;;;;;19.90;86.10;;;;;;4993347;28;19973;-86
2023/08/17 11:46:58;;;;;;;;;;;19.70;86.30;;;;;;4994412;28;19910;-86
2023/08/17 11:49:24;;;;;;;;;;;19.90;86.40;;;;;;4992147;28;19918;-86
2023/08/17 11:51:50;;;;;;;;;;;19.70;86.90;;;;;;4989746;28;19953;-87
2023/08/17 11:54:16;;;;;;;;;;;19.70;87.30;;;;;;4990565;28;19914;-86
2023/08/17 11:56:41;;;;;;;;;;;19.80;87.60;;;;;;4990142;28;19971;-87
2023/08/17 11:59:13;;;;;;;;;;;19.80;87.80;;;;;;4990698;28;19914;-86
2023/08/17 12:01:39;;;;;;;;;;;20.10;86.30;;;;;;4987267;28;20086;-86
2023/08/17 12:04:05;;;;;;;;;;;20.10;85.90;;;;;;4989634;28;19956;-86
2023/08/17 12:06:31;;;;;;;;;;;20.10;85.50;;;;;;4991298;28;19918;-88
2023/08/17 12:08:59;;;;;;;;;;;20.00;85.50;;;;;;4988991;28;20284;-86
2023/08/17 12:11:25;;;;;;;;;;;20.00;85.90;;;;;;4987680;28;19971;-85
2023/08/17 12:13:51;;;;;;;;;;;19.90;86.70;;;;;;4992852;28;19918;-86
2023/08/17 12:16:17;;;;;;;;;;;20.00;86.70;;;;;;4991968;28;19914;-85
2023/08/17 12:18:47;;;;;;;;;;;20.20;85.60;;;;;;4993040;28;19914;-85
2023/08/17 12:21:13;;;;;;;;;;;20.20;86.10;;;;;;4995214;28;19914;-86
2023/08/17 12:23:39;;;;;;;;;;;20.20;85.50;;;;;;4993397;28;19925;-86
2023/08/17 12:26:06;;;;;;;;;;;20.20;86.20;;;;;;4993078;28;19914;-85
2023/08/17 12:28:32;;;;;;;;;;;20.30;85.90;;;;;;5007036;28;19965;-85
2023/08/17 12:31:01;;;;;;;;;;;20.40;86.50;;;;;;4997748;28;19909;-85
2023/08/17 12:33:33;;;;;;;;;;;20.50;85.00;;;;;;4994927;28;19920;-85
2023/08/17 12:35:58;;;;;;;;;;;20.50;84.90;;;;;;4992232;28;19914;-86
2023/08/17 12:38:27;;;;;;;;;;;20.50;84.60;;;;;;4994798;28;19918;-86
2023/08/17 12:40:53;;;;;;;;;;;20.50;84.30;;;;;;4991920;28;19924;-85
2023/08/17 12:43:18;;;;;;;;;;;20.60;84.30;;;;;;4988157;28;19914;-85
2023/08/17 12:45:44;;;;;;;;;;;20.70;84.00;;;;;;4993482;28;20303;-85
2023/08/17 12:48:09;;;;;;;;;;;20.80;84.40;;;;;;4995417;28;19910;-86
2023/08/17 12:50:35;;;;;;;;;;;20.80;84.40;;;;;;4992866;28;19909;-86
2023/08/17 12:53:00;;;;;;;;;;;20.80;83.40;;;;;;4993582;28;20005;-86
2023/08/17 12:55:26;;;;;;;;;;;20.90;83.70;;;;;;4992783;28;19910;-86
2023/08/17 12:57:51;;;;;;;;;;;21.00;83.30;;;;;;4995713;28;20001;-86
2023/08/17 13:00:17;;;;;;;;;;;21.10;83.60;;;;;;4999407;28;19968;-86
2023/08/17 13:02:43;;;;;;;;;;;21.00;82.10;;;;;;5007504;28;19976;-86
2023/08/17 13:05:09;;;;;;;;;;;21.00;82.40;;;;;;4999208;28;19917;-86
2023/08/17 13:07:34;;;;;;;;;;;21.10;82.20;;;;;;4996568;28;19910;-86
2023/08/17 13:10:00;;;;;;;;;;;20.90;82.60;;;;;;4996740;28;19918;-86
2023/08/17 13:12:25;;;;;;;;;;;20.80;82.80;;;;;;4998273;28;19961;-86
2023/08/17 13:14:51;;;;;;;;;;;20.70;83.60;;;;;;4995704;28;19913;-86
2023/08/17 13:17:17;;;;;;;;;;;20.60;83.80;;;;;;5000806;28;19996;-86
2023/08/17 13:19:42;;;;;;;;;;;20.70;83.70;;;;;;5002521;28;19952;-86
2023/08/17 13:22:08;;;;;;;;;;;20.60;84.10;;;;;;4998128;28;19922;-87
2023/08/17 13:24:34;;;;;;;;;;;20.50;84.50;;;;;;4997101;28;20014;-87
2023/08/17 13:26:59;;;;;;;;;;;20.60;84.30;;;;;;4988174;28;19910;-86
2023/08/17 13:29:25;;;;;;;;;;;20.50;84.80;;;;;;4996775;28;19921;-87
2023/08/17 13:31:50;;;;;;;;;;;20.50;84.90;;;;;;4996483;28;19945;-86
2023/08/17 13:34:16;;;;;;;;;;;20.50;84.00;;;;;;4995672;28;19918;-87
2023/08/17 13:36:41;;;;;;;;;;;20.50;84.20;;;;;;4996668;28;19913;-87
2023/08/17 13:39:06;;;;;;;;;;;20.50;84.90;;;;;;4996607;28;19921;-86
2023/08/17 13:41:32;;;;;;;;;;;20.40;85.10;;;;;;4996718;28;19972;-87
2023/08/17 13:43:58;;;;;;;;;;;20.40;85.40;;;;;;4996094;28;19910;-87
2023/08/17 13:46:23;;;;;;;;;;;20.40;85.00;;;;;;4994481;28;19918;-86
2023/08/17 13:48:48;;;;;;;;;;;20.30;84.90;;;;;;4992688;28;19914;-86
2023/08/17 13:51:14;;;;;;;;;;;20.30;85.50;;;;;;4991235;28;20367;-87
2023/08/17 13:53:40;;;;;;;;;;;20.30;85.60;;;;;;5011411;28;19981;-86
2023/08/17 13:56:05;;;;;;;;;;;20.30;85.30;;;;;;4998129;28;19921;-87
2023/08/17 13:58:31;;;;;;;;;;;20.30;84.90;;;;;;4992334;28;19963;-86
2023/08/17 14:00:56;;;;;;;;;;;20.20;84.70;;;;;;4997441;28;19921;-86
2023/08/17 14:03:22;;;;;;;;;;;20.20;84.90;;;;;;4994140;28;19914;-86
2023/08/17 14:05:48;;;;;;;;;;;20.20;84.40;;;;;;4995225;28;20399;-86
2023/08/17 14:08:13;;;;;;;;;;;20.20;85.00;;;;;;4993944;28;19988;-87
2023/08/17 14:10:39;;;;;;;;;;;20.20;84.60;;;;;;5021591;23;20008;-85
2023/08/17 14:13:04;;;;;;;;;;;20.30;85.20;;;;;;4995032;28;20028;-84